Time;durP1;ratioP1;P1;durP2;ratioP2;P2;SDS_P1;SDS_P2;PMS_P1;PMS_P2;Temp;Humidity;BMP_temperature;BMP_pressure;BME280_temperature;BME280_humidity;BME280_pressure;Samples;Min_cycle;Max_cycle;Signal;HPM_P1;HPM_P2
2021/03/14 00:01:50;;;;;;;6.35;0.50;;;;;;;24.82;40.50;97163.25;4994621;28;20400;-52
2021/03/14 00:04:16;;;;;;;1.23;0.40;;;;;;;24.81;40.53;97156.25;4994796;28;20255;-47
2021/03/14 00:06:42;;;;;;;2.45;0.50;;;;;;;24.81;40.58;97174.16;4994587;28;20316;-48
2021/03/14 00:09:09;;;;;;;6.07;0.80;;;;;;;24.77;39.48;97160.38;4994440;28;20295;-52
2021/03/14 00:11:35;;;;;;;1.33;0.40;;;;;;;24.74;39.96;97166.13;4994323;28;20296;-49
2021/03/14 00:14:01;;;;;;;3.08;0.57;;;;;;;24.74;39.55;97182.19;4994580;28;20206;-47
2021/03/14 00:16:27;;;;;;;1.08;0.40;;;;;;;24.74;40.46;97177.66;4995442;28;20312;-54
2021/03/14 00:18:53;;;;;;;5.47;0.60;;;;;;;24.71;40.39;97178.09;4994988;28;20568;-45
2021/03/14 00:21:19;;;;;;;2.78;0.57;;;;;;;24.72;40.50;97189.59;4994511;28;20247;-45
2021/03/14 00:23:46;;;;;;;2.10;0.57;;;;;;;24.71;40.13;97195.94;4994720;28;20283;-52
2021/03/14 00:26:13;;;;;;;5.38;0.60;;;;;;;24.70;40.49;97205.81;4994364;28;20320;-49
2021/03/14 00:28:39;;;;;;;4.00;0.75;;;;;;;24.70;40.14;97216.50;4994810;28;20296;-49
2021/03/14 00:31:05;;;;;;;3.53;0.98;;;;;;;24.68;40.10;97215.91;4994488;28;20224;-45
2021/03/14 00:33:31;;;;;;;1.50;0.82;;;;;;;24.67;40.36;97208.91;4994513;28;20288;-45
2021/03/14 00:35:58;;;;;;;2.58;0.50;;;;;;;24.67;39.57;97219.59;4994262;28;20331;-51
2021/03/14 00:38:24;;;;;;;2.33;0.55;;;;;;;24.68;40.13;97207.88;4994277;28;20207;-56
2021/03/14 00:40:50;;;;;;;1.50;0.68;;;;;;;24.68;40.01;97205.22;4994007;28;20323;-44
2021/03/14 00:43:17;;;;;;;1.83;0.80;;;;;;;24.65;40.48;97216.31;4993914;28;20229;-50
2021/03/14 00:45:43;;;;;;;1.20;0.50;;;;;;;24.63;40.15;97213.03;4993774;28;20259;-49
2021/03/14 00:48:09;;;;;;;2.67;0.77;;;;;;;24.60;40.19;97218.78;4993659;28;20751;-48
2021/03/14 00:50:38;;;;;;;1.65;0.60;;;;;;;24.61;39.91;97227.59;4993052;28;20300;-51
2021/03/14 00:53:04;;;;;;;3.63;0.90;;;;;;;24.58;40.63;97218.16;4994265;28;20514;-46
2021/03/14 00:55:31;;;;;;;5.65;0.60;;;;;;;24.55;40.68;97207.88;4993493;28;20312;-50
2021/03/14 00:57:57;;;;;;;1.60;0.60;;;;;;;24.53;40.30;97213.38;4993921;28;20665;-45
2021/03/14 01:00:24;;;;;;;1.00;0.50;;;;;;;24.50;40.75;97200.44;4993915;28;20268;-48
2021/03/14 01:02:50;;;;;;;3.90;0.68;;;;;;;24.48;40.49;97189.13;4993691;28;20220;-50
2021/03/14 01:05:17;;;;;;;1.70;0.73;;;;;;;24.50;39.83;97202.28;4993387;28;20325;-54
2021/03/14 01:07:43;;;;;;;1.80;0.60;;;;;;;24.48;40.69;97218.53;4993476;28;20260;-46
2021/03/14 01:10:11;;;;;;;3.97;0.60;;;;;;;24.47;40.88;97229.41;4993383;28;20395;-47
2021/03/14 01:12:37;;;;;;;3.72;0.93;;;;;;;24.42;40.08;97231.88;4993197;28;20213;-50
2021/03/14 01:15:06;;;;;;;2.15;0.70;;;;;;;24.41;40.98;97227.53;4993248;28;20247;-45
2021/03/14 01:17:33;;;;;;;2.35;0.68;;;;;;;24.38;40.45;97226.09;4993515;28;20332;-51
2021/03/14 01:19:59;;;;;;;1.85;0.65;;;;;;;24.36;40.03;97237.00;4993233;28;20337;-48
2021/03/14 01:22:25;;;;;;;3.25;0.70;;;;;;;24.35;40.93;97245.22;4993107;28;20304;-49
2021/03/14 01:24:51;;;;;;;3.35;0.75;;;;;;;24.33;41.06;97236.56;4993340;28;20228;-43
2021/03/14 01:27:17;;;;;;;1.42;0.52;;;;;;;24.32;40.09;97241.09;4993290;28;20237;-52
2021/03/14 01:29:43;;;;;;;1.73;0.82;;;;;;;24.30;41.04;97245.81;4993052;28;20296;-48
2021/03/14 01:32:11;;;;;;;3.40;0.70;;;;;;;24.29;40.74;97246.81;4993524;28;20256;-46
2021/03/14 01:34:38;;;;;;;1.55;0.60;;;;;;;24.27;41.03;97248.88;4993091;28;20217;-45
2021/03/14 01:37:05;;;;;;;1.55;0.50;;;;;;;24.26;40.87;97241.06;4993560;28;20381;-41
2021/03/14 01:39:31;;;;;;;2.88;0.90;;;;;;;24.24;40.29;97238.59;4993238;28;20309;-52
2021/03/14 01:41:57;;;;;;;2.25;0.70;;;;;;;24.19;40.16;97244.53;4993265;28;20292;-46
2021/03/14 01:44:23;;;;;;;2.95;0.77;;;;;;;24.20;40.84;97240.03;4993969;28;20719;-46
2021/03/14 01:46:49;;;;;;;1.27;0.50;;;;;;;24.16;40.85;97236.94;4993326;28;20367;-40
2021/03/14 01:49:16;;;;;;;2.55;0.70;;;;;;;24.16;41.19;97249.44;4993117;28;20247;-44
2021/03/14 01:51:44;;;;;;;1.45;0.52;;;;;;;24.13;40.63;97244.50;4992588;28;20653;-45
2021/03/14 01:54:10;;;;;;;1.30;0.60;;;;;;;24.11;41.19;97243.88;4993198;28;20233;-44
2021/03/14 01:56:37;;;;;;;2.90;0.70;;;;;;;24.12;40.36;97248.22;4992807;28;20321;-47
2021/03/14 01:59:03;;;;;;;2.60;0.60;;;;;;;24.10;41.24;97255.59;4992566;28;20295;-48
2021/03/14 02:01:29;;;;;;;3.03;0.50;;;;;;;24.09;40.78;97253.94;4991997;28;20677;-49
2021/03/14 02:03:55;;;;;;;1.90;0.57;;;;;;;24.08;41.07;97260.31;4992658;28;20348;-51
2021/03/14 02:06:21;;;;;;;3.25;0.80;;;;;;;24.07;40.40;97258.69;4992963;28;20261;-55
2021/03/14 02:08:48;;;;;;;1.88;0.80;;;;;;;24.07;41.41;97256.00;4992576;28;20676;-48
2021/03/14 02:11:15;;;;;;;1.40;0.63;;;;;;;24.04;40.41;97259.06;4992719;28;20217;-53
2021/03/14 02:13:44;;;;;;;1.30;0.70;;;;;;;24.05;40.45;97268.72;4993400;28;20292;-48
2021/03/14 02:16:14;;;;;;;1.65;0.60;;;;;;;24.05;41.37;97279.38;4992697;28;20308;-47
2021/03/14 02:18:45;;;;;;;1.88;0.70;;;;;;;24.01;40.36;97271.81;4992710;28;20289;-47
2021/03/14 02:21:12;;;;;;;2.83;0.52;;;;;;;24.00;41.09;97282.69;4992576;28;20289;-50
2021/03/14 02:23:47;;;;;;;2.80;0.50;;;;;;;24.02;40.68;97285.97;4992588;28;20211;-49
2021/03/14 02:26:18;;;;;;;1.08;0.70;;;;;;;24.01;40.43;97290.50;4992120;28;20240;-51
2021/03/14 02:28:46;;;;;;;2.38;0.80;;;;;;;23.98;41.05;97282.88;4992572;28;20293;-54
2021/03/14 02:31:13;;;;;;;1.75;0.60;;;;;;;23.96;40.40;97290.22;4992365;28;20262;-50
2021/03/14 02:33:41;;;;;;;2.15;0.60;;;;;;;23.95;40.58;97293.13;4991913;28;20304;-50
2021/03/14 02:36:10;;;;;;;2.88;0.80;;;;;;;23.95;41.37;97295.78;4992000;28;20251;-47
2021/03/14 02:38:39;;;;;;;0.63;0.52;;;;;;;23.94;40.70;97294.94;4991629;28;20653;-47
2021/03/14 02:41:06;;;;;;;1.33;0.50;;;;;;;23.94;41.48;97294.13;4992161;28;20275;-48
2021/03/14 02:43:33;;;;;;;1.33;0.60;;;;;;;23.93;40.84;97287.97;4991640;28;20622;-47
2021/03/14 02:46:01;;;;;;;1.92;0.60;;;;;;;23.95;40.77;97299.28;4991089;28;20324;-48
2021/03/14 02:48:29;;;;;;;2.25;0.73;;;;;;;23.92;40.85;97294.34;4991368;28;20231;-45
2021/03/14 02:50:57;;;;;;;2.38;0.55;;;;;;;23.94;40.80;97297.63;4991679;28;20240;-50
2021/03/14 02:53:24;;;;;;;1.42;0.60;;;;;;;23.93;40.61;97301.34;4991913;28;20308;-48
2021/03/14 02:55:53;;;;;;;1.23;0.52;;;;;;;23.93;40.81;97303.16;4991266;28;20716;-47
2021/03/14 02:58:20;;;;;;;1.08;0.68;;;;;;;23.94;41.35;97310.97;4991298;28;20284;-47
2021/03/14 03:00:48;;;;;;;1.05;0.60;;;;;;;23.93;41.09;97320.00;4991532;28;20287;-47
2021/03/14 03:03:15;;;;;;;1.58;0.50;;;;;;;23.92;41.35;97322.88;4991287;28;20708;-48
2021/03/14 03:05:42;;;;;;;0.93;0.40;;;;;;;23.90;41.32;97328.41;4991480;28;20229;-47
2021/03/14 03:08:10;;;;;;;2.72;0.50;;;;;;;23.90;40.96;97328.41;4991474;28;20332;-47
2021/03/14 03:10:41;;;;;;;1.15;0.55;;;;;;;23.90;40.80;97339.09;4991099;28;20292;-45
2021/03/14 03:13:08;;;;;;;0.95;0.60;;;;;;;23.88;41.34;97349.16;4994853;28;20312;-46
2021/03/14 03:15:36;;;;;;;1.23;0.50;;;;;;;23.89;40.95;97356.13;4997808;28;20359;-46
2021/03/14 03:18:03;;;;;;;0.65;0.50;;;;;;;23.86;40.33;97356.50;4997712;28;20292;-47
2021/03/14 03:20:31;;;;;;;0.82;0.40;;;;;;;23.87;41.02;97360.03;4997882;28;20366;-48
2021/03/14 03:22:59;;;;;;;2.10;0.60;;;;;;;23.85;41.31;97365.56;4997988;28;20284;-49
2021/03/14 03:25:25;;;;;;;1.38;0.50;;;;;;;23.85;41.47;97370.03;4997547;28;20357;-45
2021/03/14 03:27:52;;;;;;;3.40;0.57;;;;;;;23.84;41.04;97374.56;4997423;28;20708;-50
2021/03/14 03:30:21;;;;;;;0.50;0.30;;;;;;;23.86;40.46;97383.19;4997561;28;20205;-51
2021/03/14 03:32:48;;;;;;;1.27;0.50;;;;;;;23.84;40.26;97385.25;4997478;28;20672;-49
2021/03/14 03:35:16;;;;;;;1.33;0.55;;;;;;;23.86;40.53;97387.72;4997568;28;20296;-52
2021/03/14 03:37:44;;;;;;;0.70;0.50;;;;;;;23.84;41.30;97398.59;4997217;28;20771;-46
2021/03/14 03:40:13;;;;;;;1.48;0.57;;;;;;;23.81;40.95;97397.13;4997642;28;20205;-47
2021/03/14 03:42:47;;;;;;;2.28;0.55;;;;;;;23.81;41.36;97398.94;4997317;28;20668;-46
2021/03/14 03:45:14;;;;;;;1.88;0.40;;;;;;;23.83;40.49;97402.25;4997494;28;20209;-50
2021/03/14 03:47:43;;;;;;;0.68;0.40;;;;;;;23.82;41.07;97405.97;4997593;28;20331;-47
2021/03/14 03:50:12;;;;;;;1.95;0.65;;;;;;;23.81;40.63;97412.28;4997652;28;20201;-46
2021/03/14 03:52:40;;;;;;;0.93;0.40;;;;;;;23.80;40.31;97413.31;4997459;28;20300;-46
2021/03/14 03:55:09;;;;;;;1.55;0.50;;;;;;;23.77;41.03;97419.03;4997538;28;20311;-48
2021/03/14 03:57:37;;;;;;;0.98;0.40;;;;;;;23.80;41.04;97426.66;4997507;28;20558;-46
2021/03/14 04:00:04;;;;;;;1.50;0.52;;;;;;;23.83;41.05;97432.47;4997233;28;20676;-52
2021/03/14 04:02:31;;;;;;;2.35;0.50;;;;;;;23.77;40.57;97443.06;4997224;28;20300;-50
2021/03/14 04:04:58;;;;;;;6.43;0.50;;;;;;;23.71;40.47;97451.81;4997059;28;20376;-50
2021/03/14 04:07:24;;;;;;;1.45;0.50;;;;;;;23.72;41.01;97450.81;4997502;28;20225;-50
2021/03/14 04:09:51;;;;;;;2.72;0.68;;;;;;;23.74;40.99;97456.78;4997599;28;20205;-51
2021/03/14 04:12:18;;;;;;;4.28;0.60;;;;;;;23.78;41.47;97450.03;4997573;28;20245;-48
2021/03/14 04:14:46;;;;;;;1.25;0.50;;;;;;;23.76;41.23;97447.56;4997344;28;20238;-47
2021/03/14 04:17:12;;;;;;;1.58;0.60;;;;;;;23.77;40.93;97459.88;4997398;28;20363;-45
2021/03/14 04:19:39;;;;;;;2.05;0.50;;;;;;;23.78;40.39;97468.72;4997113;28;20193;-49
2021/03/14 04:22:07;;;;;;;2.17;0.73;;;;;;;23.77;41.16;97477.75;4997468;28;20312;-41
2021/03/14 04:24:35;;;;;;;3.35;0.50;;;;;;;23.79;40.58;97481.03;4994682;28;20205;-52
2021/03/14 04:27:03;;;;;;;2.08;0.60;;;;;;;23.79;40.81;97483.72;4994036;28;20229;-46
2021/03/14 04:29:31;;;;;;;1.13;0.60;;;;;;;23.76;40.72;97479.56;4994567;28;20229;-48
2021/03/14 04:31:59;;;;;;;5.80;0.70;;;;;;;23.75;41.46;97487.81;4994552;28;20210;-49
2021/03/14 04:34:27;;;;;;;1.73;0.50;;;;;;;23.74;40.73;97494.16;4994320;28;20356;-49
2021/03/14 04:36:55;;;;;;;3.03;0.55;;;;;;;23.77;40.44;97499.09;4994930;28;20233;-47
2021/03/14 04:39:22;;;;;;;4.78;0.73;;;;;;;23.75;41.06;97509.16;4996173;28;20308;-47
2021/03/14 04:41:49;;;;;;;2.35;0.50;;;;;;;23.75;41.25;97506.47;4996014;28;20213;-48
2021/03/14 04:44:18;;;;;;;2.67;0.60;;;;;;;23.75;40.32;97506.47;4996373;28;20237;-52
2021/03/14 04:46:46;;;;;;;1.50;0.68;;;;;;;23.71;41.12;97514.03;4994252;28;20257;-53
2021/03/14 04:49:14;;;;;;;0.50;0.30;;;;;;;23.73;41.19;97513.81;4994724;28;20287;-51
2021/03/14 04:51:44;;;;;;;8.73;0.47;;;;;;;23.74;40.21;97531.50;4994456;28;20281;-53
2021/03/14 04:54:11;;;;;;;1.63;0.50;;;;;;;23.70;41.05;97532.88;4994790;28;20236;-45
2021/03/14 04:56:39;;;;;;;3.67;0.57;;;;;;;23.73;41.19;97525.34;4994022;28;20287;-49
2021/03/14 04:59:07;;;;;;;1.20;0.47;;;;;;;23.71;41.01;97534.56;4994412;28;20205;-46
2021/03/14 05:01:36;;;;;;;3.15;0.52;;;;;;;23.68;41.29;97533.09;4994534;28;20209;-42
2021/03/14 05:04:04;;;;;;;1.65;0.70;;;;;;;23.67;40.64;97542.13;4993833;28;20206;-48
2021/03/14 05:06:31;;;;;;;1.45;0.50;;;;;;;23.68;40.91;97541.09;4993161;28;20227;-47
2021/03/14 05:08:59;;;;;;;0.40;0.30;;;;;;;23.69;40.17;97544.59;4993797;28;20231;-46
2021/03/14 05:11:25;;;;;;;2.00;0.52;;;;;;;23.68;40.40;97541.09;4993523;28;20220;-44
2021/03/14 05:13:52;;;;;;;1.52;0.40;;;;;;;23.67;40.77;97549.31;4993102;28;20297;-45
2021/03/14 05:16:19;;;;;;;1.70;0.70;;;;;;;23.64;40.60;97548.63;4993182;28;20231;-41
2021/03/14 05:18:46;;;;;;;0.95;0.50;;;;;;;23.63;40.53;97555.00;4993657;28;20212;-47
2021/03/14 05:21:14;;;;;;;1.75;0.40;;;;;;;23.61;41.32;97562.34;4993962;28;20626;-50
2021/03/14 05:23:41;;;;;;;1.10;0.50;;;;;;;23.60;40.38;97567.91;4993161;28;20241;-49
2021/03/14 05:26:11;;;;;;;3.60;0.57;;;;;;;23.63;41.24;97576.34;4993466;28;20632;-47
2021/03/14 05:28:38;;;;;;;1.27;0.50;;;;;;;23.60;41.13;97582.06;4993365;28;20221;-48
2021/03/14 05:31:20;;;;;;;2.33;0.38;;;;;;;23.61;40.36;97572.22;4996024;28;20304;-51
2021/03/14 05:33:47;;;;;;;2.72;0.65;;;;;;;23.59;40.82;97577.75;4994790;28;20205;-44
2021/03/14 05:36:14;;;;;;;1.02;0.28;;;;;;;23.61;41.18;97574.88;4993259;28;20233;-52
2021/03/14 05:38:40;;;;;;;1.13;0.40;;;;;;;23.57;40.42;97587.78;4992543;28;20292;-48
2021/03/14 05:41:06;;;;;;;1.35;0.40;;;;;;;23.59;40.95;97587.59;4992561;28;20202;-48
2021/03/14 05:43:32;;;;;;;5.10;0.50;;;;;;;23.58;40.47;97594.78;4992771;28;20205;-47
2021/03/14 05:45:59;;;;;;;1.80;0.60;;;;;;;23.57;40.64;97593.13;4992449;28;20233;-44
2021/03/14 05:48:25;;;;;;;1.25;0.57;;;;;;;23.56;41.27;97599.44;4992927;28;20341;-48
2021/03/14 05:50:51;;;;;;;0.30;0.30;;;;;;;23.57;40.42;97613.63;4992764;28;20236;-54
2021/03/14 05:53:18;;;;;;;2.50;0.50;;;;;;;23.53;41.26;97618.53;4992766;28;20233;-47
2021/03/14 05:55:44;;;;;;;2.95;0.45;;;;;;;23.53;40.75;97618.53;4992734;28;20333;-43
2021/03/14 05:58:12;;;;;;;1.05;0.40;;;;;;;23.56;40.18;97627.97;4992388;28;20552;-48
2021/03/14 06:00:38;;;;;;;0.90;0.47;;;;;;;23.55;40.95;97626.31;4992444;28;20371;-47
2021/03/14 06:03:04;;;;;;;1.25;0.60;;;;;;;23.54;40.22;97635.34;4992465;28;20205;-50
2021/03/14 06:05:32;;;;;;;1.02;0.40;;;;;;;23.53;40.45;97639.88;4992149;28;20229;-48
2021/03/14 06:07:59;;;;;;;1.00;0.50;;;;;;;23.54;40.71;97641.50;4992174;28;20232;-45
2021/03/14 06:10:26;;;;;;;1.90;0.40;;;;;;;23.53;40.07;97650.53;4992103;28;20380;-45
2021/03/14 06:12:54;;;;;;;1.70;0.70;;;;;;;23.51;40.50;97652.53;4992280;28;20301;-43
2021/03/14 06:15:20;;;;;;;0.93;0.40;;;;;;;23.52;40.21;97656.88;4991904;28;20453;-45
2021/03/14 06:17:47;;;;;;;0.63;0.40;;;;;;;23.51;40.36;97655.22;4991848;28;20288;-47
2021/03/14 06:20:36;;;;;;;1.15;0.32;;;;;;;23.54;40.44;97665.53;4991868;28;20310;-45
2021/03/14 06:23:07;;;;;;;2.25;0.60;;;;;;;23.54;41.10;97670.84;4991910;28;20622;-47
2021/03/14 06:25:34;;;;;;;1.23;0.50;;;;;;;23.53;40.88;97685.22;4991990;28;20231;-48
2021/03/14 06:28:00;;;;;;;0.90;0.52;;;;;;;23.57;40.50;97685.69;4991988;28;20343;-47
2021/03/14 06:30:28;;;;;;;0.88;0.50;;;;;;;23.57;40.43;97694.50;4991632;28;20217;-48
2021/03/14 06:33:04;;;;;;;1.65;0.57;;;;;;;23.56;40.86;97700.84;4991972;28;20296;-49
2021/03/14 06:35:38;;;;;;;0.45;0.40;;;;;;;23.53;40.96;97711.91;4991743;28;20229;-43
2021/03/14 06:38:26;;;;;;;2.28;0.50;;;;;;;23.55;40.07;97715.22;4991649;28;20276;-45
2021/03/14 06:41:09;;;;;;;0.45;0.40;;;;;;;23.52;40.79;97717.41;4991878;28;20197;-45
2021/03/14 06:43:39;;;;;;;0.85;0.45;;;;;;;23.46;39.76;97734.97;4991964;28;20280;-42
2021/03/14 06:46:18;;;;;;;2.30;0.47;;;;;;;23.40;40.82;97736.56;4991595;28;20299;-42
2021/03/14 06:48:44;;;;;;;1.05;0.40;;;;;;;23.43;40.26;97751.34;4991252;28;20303;-47
2021/03/14 06:51:10;;;;;;;2.15;0.50;;;;;;;23.42;40.28;97753.19;4991768;28;20317;-46
2021/03/14 06:53:36;;;;;;;0.50;0.30;;;;;;;23.43;40.48;97746.84;4991643;28;20205;-46
2021/03/14 06:56:05;;;;;;;0.98;0.40;;;;;;;23.43;39.74;97762.00;4991566;28;20231;-45
2021/03/14 06:58:33;;;;;;;0.73;0.43;;;;;;;23.44;40.05;97755.69;4991308;28;20338;-46
2021/03/14 07:01:09;;;;;;;0.82;0.50;;;;;;;23.48;39.99;97754.28;4991849;28;20209;-43
2021/03/14 07:03:38;;;;;;;0.82;0.40;;;;;;;23.49;40.60;97768.47;4991328;28;20229;-54
2021/03/14 07:06:19;;;;;;;2.90;0.73;;;;;;;23.50;40.23;97770.13;4991653;28;20316;-46
2021/03/14 07:08:47;;;;;;;1.70;0.55;;;;;;;23.56;40.50;97772.88;4991065;28;20823;-43
2021/03/14 07:11:33;;;;;;;4.03;0.73;;;;;;;23.62;40.25;97772.16;4991352;28;20241;-45
2021/03/14 07:14:00;;;;;;;0.82;0.43;;;;;;;23.69;39.88;97777.56;4991425;28;20288;-46
2021/03/14 07:16:42;;;;;;;0.80;0.40;;;;;;;23.79;40.48;97782.63;4991409;28;20324;-43
2021/03/14 07:19:09;;;;;;;4.47;0.55;;;;;;;23.83;41.01;97783.94;4991507;28;20352;-47
2021/03/14 07:21:35;;;;;;;2.30;0.40;;;;;;;23.89;40.36;97793.88;4991655;28;20391;-51
2021/03/14 07:24:02;;;;;;;2.40;0.60;;;;;;;23.93;40.57;97800.53;4991521;28;20264;-45
2021/03/14 07:26:45;;;;;;;3.25;0.60;;;;;;;23.98;41.21;97803.47;4991531;28;20260;-49
2021/03/14 07:29:12;;;;;;;0.73;0.50;;;;;;;24.04;41.10;97811.75;4992185;28;20702;-47
2021/03/14 07:31:38;;;;;;;0.52;0.50;;;;;;;24.07;41.04;97806.84;4992031;28;20209;-41
2021/03/14 07:34:06;;;;;;;1.77;0.50;;;;;;;24.11;40.90;97809.97;4992567;28;20340;-40
2021/03/14 07:36:33;;;;;;;7.97;0.40;;;;;;;24.12;40.81;97815.13;4992277;28;20231;-47
2021/03/14 07:39:00;;;;;;;27.50;1.67;;;;;;;24.17;40.52;97811.91;4991725;28;20221;-42
2021/03/14 07:41:27;;;;;;;4.82;0.77;;;;;;;24.24;40.69;97818.16;4991671;28;20209;-45
2021/03/14 07:43:54;;;;;;;5.53;0.98;;;;;;;24.22;40.68;97817.50;4991852;28;20252;-46
2021/03/14 07:46:24;;;;;;;18.83;1.08;;;;;;;24.18;41.39;97818.88;4991199;28;20312;-46
2021/03/14 07:48:52;;;;;;;8.50;0.90;;;;;;;24.11;41.36;97828.66;4991851;28;20240;-51
2021/03/14 07:51:21;;;;;;;3.33;0.70;;;;;;;24.16;41.65;97834.28;4991379;28;20228;-46
2021/03/14 07:53:48;;;;;;;1.77;0.80;;;;;;;24.19;42.49;97828.56;4991884;28;20240;-47
2021/03/14 07:56:14;;;;;;;4.03;0.70;;;;;;;24.22;42.37;97830.06;4991096;28;20260;-46
2021/03/14 07:58:42;;;;;;;4.68;0.93;;;;;;;24.17;41.93;97830.59;4991098;28;20208;-49
2021/03/14 08:01:27;;;;;;;9.25;0.80;;;;;;;24.14;40.68;97847.81;4995281;28;20205;-48
2021/03/14 08:03:54;;;;;;;4.68;1.30;;;;;;;24.01;40.75;97851.16;4996191;28;20217;-51
2021/03/14 08:06:52;;;;;;;9.05;1.05;;;;;;;23.85;41.87;97854.00;4995757;28;20584;-50
2021/03/14 08:09:45;;;;;;;11.32;1.20;;;;;;;23.76;41.00;97852.41;4995055;28;20592;-45
2021/03/14 08:12:35;;;;;;;5.07;0.77;;;;;;;23.76;41.27;97863.06;4949134;28;20558;-51
2021/03/14 08:15:01;;;;;;;4.82;0.77;;;;;;;23.72;41.78;97861.78;4995191;28;20307;-48
2021/03/14 08:17:37;;;;;;;10.15;0.93;;;;;;;23.67;41.77;97864.19;4994932;28;20212;-54
2021/03/14 08:20:05;;;;;;;9.30;0.98;;;;;;;23.59;41.92;97863.22;4994507;28;20572;-54
2021/03/14 08:22:48;;;;;;;12.50;1.33;;;;;;;23.55;42.48;97866.44;4994577;28;20292;-46
2021/03/14 08:25:28;;;;;;;11.23;0.90;;;;;;;23.53;41.82;97871.13;4994387;28;20198;-48
2021/03/14 08:27:56;;;;;;;3.72;0.90;;;;;;;23.50;42.15;97869.66;4994778;28;20233;-48
2021/03/14 08:30:42;;;;;;;3.20;0.75;;;;;;;23.49;42.31;97878.66;4994887;28;20213;-53
2021/03/14 08:33:25;;;;;;;3.08;0.93;;;;;;;23.48;41.23;97871.66;4994856;28;20565;-52
2021/03/14 08:35:53;;;;;;;3.47;0.80;;;;;;;23.49;41.93;97869.84;4994573;28;20315;-45
2021/03/14 08:38:48;;;;;;;3.83;0.85;;;;;;;23.52;41.54;97870.31;4994493;28;20304;-52
2021/03/14 08:41:29;;;;;;;3.35;0.70;;;;;;;23.65;41.96;97881.19;4986960;28;20252;-45
2021/03/14 08:44:01;;;;;;;2.25;0.70;;;;;;;23.72;40.89;97883.13;4994544;28;20201;-45
2021/03/14 08:47:06;;;;;;;2.13;0.40;;;;;;;23.75;41.13;97880.13;4994411;28;20588;-44
2021/03/14 08:49:39;;;;;;;3.08;0.80;;;;;;;23.80;41.60;97881.22;4993938;28;20251;-50
2021/03/14 08:52:08;;;;;;;2.35;0.95;;;;;;;23.81;42.21;97876.69;4994413;28;20226;-48
2021/03/14 08:54:36;;;;;;;12.25;1.23;;;;;;;23.82;41.93;97878.41;4994442;28;20205;-48
2021/03/14 08:57:06;;;;;;;8.68;1.10;;;;;;;23.87;43.38;97884.00;4993816;28;20271;-47
2021/03/14 08:59:32;;;;;;;14.45;1.67;;;;;;;23.89;44.83;97890.00;4993808;28;20205;-50
2021/03/14 09:02:00;;;;;;;10.57;0.88;;;;;;;23.97;44.97;97892.56;4993993;28;20205;-49
2021/03/14 09:04:28;;;;;;;7.45;1.17;;;;;;;24.01;46.12;97888.53;4993675;28;20376;-44
2021/03/14 09:07:05;;;;;;;7.28;1.00;;;;;;;24.01;45.33;97896.56;4993542;28;20232;-45
2021/03/14 09:09:31;;;;;;;12.07;1.05;;;;;;;24.03;45.61;97901.69;4994176;28;20264;-49
2021/03/14 09:12:03;;;;;;;2.33;0.80;;;;;;;24.05;45.94;97899.69;4993679;28;20703;-53
2021/03/14 09:14:35;;;;;;;6.93;1.02;;;;;;;24.06;45.05;97911.19;4994417;28;20198;-53
2021/03/14 09:17:05;;;;;;;4.07;0.90;;;;;;;24.06;46.60;97911.19;4993761;28;20359;-49
2021/03/14 09:19:42;;;;;;;3.58;0.77;;;;;;;24.06;45.35;97920.00;4994192;28;20201;-48
2021/03/14 09:22:13;;;;;;;5.03;0.80;;;;;;;24.09;46.42;97921.50;4993760;28;20272;-52
2021/03/14 09:24:44;;;;;;;2.60;0.75;;;;;;;24.10;45.82;97917.78;4993550;28;20328;-52
2021/03/14 09:27:14;;;;;;;6.07;0.98;;;;;;;24.09;46.95;97916.97;4993372;28;20229;-51
2021/03/14 09:29:52;;;;;;;5.18;1.30;;;;;;;24.11;46.03;97914.94;4993320;28;20205;-52
2021/03/14 09:32:32;;;;;;;2.28;0.80;;;;;;;24.11;46.87;97916.78;4993292;28;20194;-51
2021/03/14 09:35:22;;;;;;;3.30;0.73;;;;;;;24.08;46.30;97903.81;4993320;28;20190;-48
2021/03/14 09:37:51;;;;;;;7.10;0.70;;;;;;;24.09;46.99;97910.81;4993405;28;20197;-48
2021/03/14 09:40:34;;;;;;;4.72;1.17;;;;;;;24.15;45.88;97910.09;4993315;28;20296;-46
2021/03/14 09:43:14;;;;;;;8.38;1.77;;;;;;;24.06;42.39;97917.34;4992999;28;20356;-50
2021/03/14 09:45:43;;;;;;;7.78;1.58;;;;;;;24.12;42.87;97916.63;4992904;28;20232;-47
2021/03/14 09:48:12;;;;;;;10.13;1.17;;;;;;;24.19;42.85;97922.03;4992871;28;20282;-51
2021/03/14 09:50:42;;;;;;;6.70;1.20;;;;;;;24.18;43.76;97920.38;4993135;28;20248;-44
2021/03/14 09:53:10;;;;;;;3.17;0.82;;;;;;;24.23;42.85;97927.84;4992833;28;20781;-46
2021/03/14 09:55:38;;;;;;;3.72;0.90;;;;;;;24.27;43.22;97929.16;4992936;28;20304;-48
2021/03/14 09:58:09;;;;;;;8.35;0.90;;;;;;;24.32;42.36;97924.06;4992668;28;20201;-51
2021/03/14 10:00:36;;;;;;;4.25;1.08;;;;;;;24.38;42.93;97920.66;4992709;28;20444;-46
2021/03/14 10:03:04;;;;;;;12.50;1.08;;;;;;;24.36;42.50;97928.88;4992165;28;20288;-49
2021/03/14 10:05:42;;;;;;;5.25;1.05;;;;;;;24.32;41.67;97916.06;4992504;28;20317;-45
2021/03/14 10:08:11;;;;;;;4.25;1.10;;;;;;;24.30;41.68;97926.13;4991962;28;20225;-48
2021/03/14 10:10:39;;;;;;;11.70;1.58;;;;;;;24.31;41.10;97917.88;4992632;28;20296;-44
2021/03/14 10:13:06;;;;;;;6.88;1.08;;;;;;;24.37;41.32;97921.69;4992338;28;20728;-47
2021/03/14 10:15:33;;;;;;;6.30;0.70;;;;;;;24.43;40.53;97923.63;4992299;28;20316;-45
2021/03/14 10:18:00;;;;;;;3.55;1.10;;;;;;;24.48;41.49;97920.38;4992103;28;20617;-49
2021/03/14 10:20:26;;;;;;;7.97;0.95;;;;;;;24.49;40.34;97920.19;4992401;28;20209;-44
2021/03/14 10:22:59;;;;;;;10.05;0.90;;;;;;;24.47;40.94;97922.22;4991381;28;20240;-46
2021/03/14 10:25:29;;;;;;;6.60;0.90;;;;;;;24.46;40.72;97917.88;4992631;28;20317;-46
2021/03/14 10:28:10;;;;;;;2.38;0.70;;;;;;;24.46;40.42;97922.41;4991956;28;20392;-45
2021/03/14 10:30:36;;;;;;;11.77;0.90;;;;;;;24.42;40.93;97913.13;4992137;28;20221;-44
2021/03/14 10:33:04;;;;;;;4.65;0.70;;;;;;;24.37;40.60;97913.66;4992492;28;20257;-48
2021/03/14 10:35:30;;;;;;;4.80;0.98;;;;;;;24.33;41.48;97910.53;4991789;28;20225;-48
2021/03/14 10:37:57;;;;;;;6.88;1.40;;;;;;;24.29;40.43;97911.09;4992416;28;20292;-43
2021/03/14 10:40:24;;;;;;;5.55;1.00;;;;;;;24.14;41.08;97908.41;4992056;28;20206;-45
2021/03/14 10:42:52;;;;;;;10.13;1.30;;;;;;;24.13;41.17;97912.09;4991931;28;20684;-44
2021/03/14 10:45:21;;;;;;;9.70;1.00;;;;;;;24.11;41.39;97914.13;4991634;28;20213;-48
2021/03/14 10:48:00;;;;;;;8.90;1.00;;;;;;;24.12;41.98;97902.44;4991368;28;20688;-45
2021/03/14 10:50:29;;;;;;;11.93;1.23;;;;;;;24.08;41.79;97909.16;4991724;28;20288;-50
2021/03/14 10:53:09;;;;;;;3.88;0.88;;;;;;;23.98;41.88;97904.91;4991695;28;20213;-52
2021/03/14 10:55:37;;;;;;;9.32;0.88;;;;;;;23.97;42.05;97911.25;4991414;28;20267;-58
2021/03/14 10:58:10;;;;;;;5.70;1.23;;;;;;;23.94;41.80;97903.63;4991672;28;20255;-53
2021/03/14 11:00:40;;;;;;;4.07;0.60;;;;;;;23.90;42.49;97899.66;4991799;28;20281;-53
2021/03/14 11:03:13;;;;;;;3.47;1.00;;;;;;;23.88;42.00;97895.50;4991507;28;20213;-55
2021/03/14 11:05:42;;;;;;;4.65;0.70;;;;;;;23.91;42.44;97911.97;4991524;28;20226;-55
2021/03/14 11:08:08;;;;;;;3.75;0.65;;;;;;;23.91;42.27;97908.50;4991361;28;20233;-47
2021/03/14 11:10:35;;;;;;;5.45;0.77;;;;;;;23.86;42.20;97906.38;4991531;28;20201;-46
2021/03/14 11:13:15;;;;;;;3.92;0.70;;;;;;;23.79;42.50;97916.09;4991479;28;20369;-50
2021/03/14 11:15:41;;;;;;;4.13;0.60;;;;;;;23.80;41.95;97913.25;4991633;28;20229;-51
2021/03/14 11:18:18;;;;;;;7.22;0.82;;;;;;;23.80;41.60;97902.56;4991499;28;20206;-53
2021/03/14 11:20:45;;;;;;;2.63;0.70;;;;;;;23.81;42.13;97903.38;4991823;28;20225;-53
2021/03/14 11:23:11;;;;;;;3.92;0.90;;;;;;;23.87;41.14;97913.38;4991562;28;20236;-52
2021/03/14 11:25:37;;;;;;;6.90;1.25;;;;;;;23.79;42.40;97911.56;4991397;28;20357;-55
2021/03/14 11:28:08;;;;;;;5.57;0.75;;;;;;;23.82;41.05;97910.44;4991390;28;20772;-51
2021/03/14 11:30:37;;;;;;;6.05;0.95;;;;;;;23.82;41.94;97910.44;4991339;28;20596;-50
2021/03/14 11:33:04;;;;;;;10.35;0.68;;;;;;;23.84;41.15;97905.72;4991232;28;20668;-46
2021/03/14 11:35:30;;;;;;;5.40;0.85;;;;;;;23.83;41.67;97906.72;4994969;28;20597;-55
2021/03/14 11:37:56;;;;;;;2.58;0.90;;;;;;;23.78;41.72;97907.25;4995567;28;20295;-50
2021/03/14 11:40:22;;;;;;;1.90;0.70;;;;;;;23.80;41.63;97912.44;4995569;28;20244;-52
2021/03/14 11:42:49;;;;;;;3.83;0.80;;;;;;;23.76;41.77;97905.78;4995121;28;20351;-55
2021/03/14 11:45:15;;;;;;;0.85;0.40;;;;;;;23.77;41.48;97894.09;4994593;28;20303;-51